Cottonville, North Carolina
Current Conditions -  °F | °C
As of 2:15 PM on Thursday 23 Oct 2014 (Local Time) from KVUJ Reporting Station
Clear Clear  
Wind Chill: 66°   Ceiling: Unl
Heat Index: 66°   Visibility: 10mi
Dew Point: 41°   Wind: 10mph
Humidity: 40%   Direction: 350°N
Pressure: 30.04"   Gusts: 16mph
Location:  35.2152°N, 80.1663°W
Report Text: KVUJ 231815Z AUTO 35009G14KT 10SM CLR 19/05 A3004 RMK AO2 T01900052
Loading
Personal Weather Stations






























Interactive Weather Map
Tropical Storm Tracking
New forecast layout! Learn more

10-Day Weather Forecast

Advertisements
Track Severe Weather on mobile